createdAt,value
2018-06-12T00:00:23.598Z,18.50
2018-06-12T00:02:51.822Z,18.50
2018-06-12T00:05:20.144Z,18.50
2018-06-12T00:07:48.387Z,18.50
2018-06-12T00:10:16.650Z,18.40
2018-06-12T00:12:44.977Z,18.40
2018-06-12T00:15:13.234Z,18.40
2018-06-12T00:17:41.527Z,18.50
2018-06-12T00:20:09.795Z,18.60
2018-06-12T00:22:38.057Z,18.50
2018-06-12T00:25:06.306Z,18.60
2018-06-12T00:27:34.572Z,18.70
2018-06-12T00:30:02.839Z,18.60
2018-06-12T00:32:31.106Z,18.60
2018-06-12T00:34:59.393Z,18.70
2018-06-12T00:37:27.650Z,18.60
2018-06-12T00:39:55.926Z,18.60
2018-06-12T00:42:24.205Z,18.60
2018-06-12T00:44:52.448Z,18.70
2018-06-12T00:47:20.798Z,18.70
2018-06-12T00:49:49.023Z,18.70
2018-06-12T00:52:17.307Z,18.70
2018-06-12T00:54:45.562Z,18.60
2018-06-12T00:57:13.862Z,18.60
2018-06-12T00:59:42.154Z,18.60
2018-06-12T01:02:10.416Z,18.60
2018-06-12T01:04:38.710Z,18.70
2018-06-12T01:07:06.959Z,18.70
2018-06-12T01:12:03.225Z,18.80
2018-06-12T01:14:31.469Z,18.80
2018-06-12T01:19:50.813Z,18.80
2018-06-12T01:22:19.034Z,18.60
2018-06-12T01:24:47.308Z,18.60
2018-06-12T01:27:15.636Z,18.70
2018-06-12T01:29:43.858Z,18.60
2018-06-12T01:32:12.103Z,18.30
2018-06-12T01:34:40.340Z,18.10
2018-06-12T01:37:08.594Z,18.00
2018-06-12T01:39:36.857Z,17.90
2018-06-12T01:47:01.163Z,17.90
2018-06-12T01:49:29.404Z,17.80
2018-06-12T01:51:57.661Z,17.70
2018-06-12T01:54:25.944Z,17.70
2018-06-12T01:56:54.193Z,17.80
2018-06-12T01:59:22.421Z,17.80
2018-06-12T02:01:50.688Z,17.60
2018-06-12T02:04:18.954Z,17.60
2018-06-12T02:06:47.190Z,17.60
2018-06-12T02:09:15.521Z,17.60
2018-06-12T02:11:43.780Z,17.60
2018-06-12T02:14:11.995Z,17.50
2018-06-12T02:16:40.245Z,17.40
2018-06-12T02:19:08.512Z,17.40
2018-06-12T02:21:36.754Z,17.40
2018-06-12T02:24:04.980Z,17.40
2018-06-12T02:26:33.223Z,17.50
2018-06-12T02:29:01.467Z,17.50
2018-06-12T02:31:29.728Z,17.50
2018-06-12T02:33:57.969Z,17.50
2018-06-12T02:36:26.223Z,17.50
2018-06-12T02:38:54.459Z,17.50
2018-06-12T02:41:22.699Z,17.40
2018-06-12T02:43:50.963Z,17.40
2018-06-12T02:46:19.200Z,17.40
2018-06-12T02:48:47.416Z,17.40
2018-06-12T02:51:15.713Z,17.40
2018-06-12T02:53:43.939Z,17.40
2018-06-12T02:56:12.198Z,17.30
2018-06-12T02:58:40.434Z,17.30
2018-06-12T03:01:08.644Z,17.30
2018-06-12T03:03:36.909Z,17.30
2018-06-12T03:06:05.181Z,17.30
2018-06-12T03:08:33.433Z,17.30
2018-06-12T03:11:01.735Z,17.40
2018-06-12T03:13:29.976Z,17.40
2018-06-12T03:15:58.235Z,17.40
2018-06-12T03:18:26.454Z,17.30
2018-06-12T03:20:54.702Z,17.30
2018-06-12T03:23:23.031Z,17.30
2018-06-12T03:25:58.208Z,17.20
2018-06-12T03:28:26.459Z,17.20
2018-06-12T03:30:54.709Z,17.20
2018-06-12T03:33:22.962Z,17.20
2018-06-12T03:35:51.238Z,17.20
2018-06-12T03:38:19.489Z,17.20
2018-06-12T03:40:47.695Z,17.20
2018-06-12T03:43:15.976Z,17.10
2018-06-12T03:45:43.514Z,17.10
2018-06-12T03:48:11.055Z,17.10
2018-06-12T03:50:39.315Z,16.90
2018-06-12T03:53:07.594Z,16.70
2018-06-12T03:55:35.798Z,16.70
2018-06-12T03:58:04.293Z,16.80
2018-06-12T04:00:32.484Z,16.80
2018-06-12T04:03:00.744Z,16.70
2018-06-12T04:05:28.972Z,16.80
2018-06-12T04:07:57.207Z,16.90
2018-06-12T04:10:25.459Z,16.90
2018-06-12T04:12:53.683Z,16.80
2018-06-12T04:15:21.911Z,16.80
2018-06-12T04:17:50.164Z,16.70
2018-06-12T04:20:18.421Z,16.70
2018-06-12T04:22:46.682Z,16.90
2018-06-12T04:27:42.861Z,17.00
2018-06-12T04:30:11.121Z,17.00
2018-06-12T04:32:39.430Z,17.00
2018-06-12T04:35:07.694Z,16.90
2018-06-12T04:37:35.921Z,16.90
2018-06-12T04:40:04.177Z,17.10
2018-06-12T04:42:32.414Z,17.20
2018-06-12T04:45:00.656Z,17.20
2018-06-12T04:47:28.935Z,17.20
2018-06-12T04:49:57.161Z,17.20
2018-06-12T04:52:25.367Z,17.30
2018-06-12T04:54:53.617Z,17.40
2018-06-12T04:57:21.144Z,17.40
2018-06-12T04:59:48.654Z,17.30
2018-06-12T05:04:44.994Z,17.20
2018-06-12T05:07:13.282Z,17.20
2018-06-12T05:09:41.546Z,17.40
2018-06-12T05:12:09.814Z,17.50
2018-06-12T05:14:38.025Z,17.60
2018-06-12T05:17:06.388Z,17.80
2018-06-12T05:19:34.631Z,17.80
2018-06-12T05:22:02.892Z,17.90
2018-06-12T05:24:31.163Z,17.90
2018-06-12T05:26:59.403Z,18.00
2018-06-12T05:29:27.669Z,18.10
2018-06-12T05:31:55.937Z,18.20
2018-06-12T05:34:24.186Z,18.30
2018-06-12T05:36:52.454Z,18.30
2018-06-12T05:39:20.721Z,18.40
2018-06-12T05:41:48.950Z,18.50
2018-06-12T05:44:17.242Z,18.50
2018-06-12T05:46:45.511Z,18.50
2018-06-12T05:49:13.726Z,18.50
2018-06-12T05:51:41.965Z,18.50
2018-06-12T05:54:10.211Z,18.60
2018-06-12T05:56:38.468Z,18.70
2018-06-12T05:59:06.716Z,18.70
2018-06-12T06:01:34.946Z,18.80
2018-06-12T06:04:03.180Z,18.90
2018-06-12T06:06:31.411Z,19.00
2018-06-12T06:08:59.653Z,19.00
2018-06-12T06:11:27.909Z,19.00
2018-06-12T06:13:56.169Z,19.10
2018-06-12T06:16:24.417Z,19.10
2018-06-12T06:18:52.650Z,19.20
2018-06-12T06:21:20.886Z,19.20
2018-06-12T06:23:49.156Z,19.20
2018-06-12T06:26:17.425Z,19.40
2018-06-12T06:28:45.696Z,19.50
2018-06-12T06:31:13.958Z,19.60
2018-06-12T06:33:42.247Z,19.60
2018-06-12T06:36:10.523Z,19.70
2018-06-12T06:41:06.710Z,19.80
2018-06-12T06:43:34.962Z,19.90
2018-06-12T06:46:03.212Z,20.00
2018-06-12T06:48:31.452Z,20.00
2018-06-12T06:50:59.747Z,20.10
2018-06-12T06:53:27.915Z,20.00
2018-06-12T06:55:56.194Z,20.00
2018-06-12T06:58:24.415Z,20.10
2018-06-12T07:00:52.656Z,20.20
2018-06-12T07:03:20.911Z,20.20
2018-06-12T07:05:49.191Z,20.20
2018-06-12T07:08:20.071Z,20.30
2018-06-12T07:10:48.330Z,20.30
2018-06-12T07:13:16.670Z,20.30
2018-06-12T07:15:44.961Z,20.30
2018-06-12T07:18:13.208Z,20.20
2018-06-12T07:21:51.751Z,20.30
2018-06-12T07:24:20.010Z,20.30
2018-06-12T07:26:48.223Z,20.40
2018-06-12T07:29:16.521Z,20.40
2018-06-12T07:31:44.806Z,20.50
2018-06-12T07:34:13.062Z,20.50
2018-06-12T07:36:41.297Z,20.70
2018-06-12T07:39:09.523Z,20.70
2018-06-12T07:41:37.754Z,20.80
2018-06-12T07:44:06.002Z,20.90
2018-06-12T07:46:34.273Z,20.90
2018-06-12T07:49:02.519Z,21.00
2018-06-12T07:51:30.755Z,21.10
2018-06-12T07:53:58.967Z,21.10
2018-06-12T07:56:27.186Z,21.30
2018-06-12T07:58:55.446Z,21.40
2018-06-12T08:01:23.688Z,21.50
2018-06-12T08:03:51.959Z,21.60
2018-06-12T08:06:20.206Z,21.70
2018-06-12T08:08:48.422Z,21.60
2018-06-12T08:11:16.687Z,21.70
2018-06-12T08:13:44.945Z,21.60
2018-06-12T08:16:13.286Z,21.80
2018-06-12T08:18:41.504Z,21.90
2018-06-12T08:21:09.740Z,21.80
2018-06-12T08:23:37.969Z,21.90
2018-06-12T08:26:06.194Z,21.90
2018-06-12T08:28:34.441Z,21.70
2018-06-12T08:31:02.687Z,21.90
2018-06-12T08:33:30.929Z,21.80
2018-06-12T08:35:59.200Z,21.80
2018-06-12T08:38:27.441Z,21.90
2018-06-12T08:40:55.722Z,22.00
2018-06-12T08:43:23.886Z,22.00
2018-06-12T08:45:52.111Z,22.20
2018-06-12T08:48:20.337Z,22.40
2018-06-12T08:50:48.599Z,22.80
2018-06-12T08:53:16.858Z,23.10
2018-06-12T08:55:45.119Z,23.10
2018-06-12T08:58:13.362Z,23.20
2018-06-12T09:00:41.620Z,23.20
2018-06-12T09:03:09.850Z,23.10
2018-06-12T09:05:38.108Z,23.10
2018-06-12T09:08:06.327Z,23.00
2018-06-12T09:10:34.571Z,23.10
2018-06-12T09:13:02.807Z,23.30
2018-06-12T09:15:31.015Z,23.50
2018-06-12T09:17:59.246Z,23.80
2018-06-12T09:20:27.518Z,24.00
2018-06-12T09:22:55.742Z,24.30
2018-06-12T09:25:23.961Z,24.60
2018-06-12T09:27:52.210Z,24.70
2018-06-12T09:30:20.453Z,24.70
2018-06-12T09:32:48.655Z,24.70
2018-06-12T09:35:16.919Z,24.60
2018-06-12T09:37:45.159Z,24.70
2018-06-12T09:40:13.403Z,24.70
2018-06-12T09:42:41.663Z,24.50
2018-06-12T09:45:09.994Z,24.40
2018-06-12T09:50:06.237Z,24.50
2018-06-12T09:52:34.473Z,24.40
2018-06-12T09:55:02.715Z,24.50
2018-06-12T09:57:30.983Z,24.30
2018-06-12T09:59:59.240Z,24.20
2018-06-12T10:02:27.482Z,24.40
2018-06-12T10:04:55.707Z,24.80
2018-06-12T10:07:23.965Z,25.00
2018-06-12T10:09:52.202Z,25.10
2018-06-12T10:12:20.468Z,24.80
2018-06-12T10:14:48.702Z,24.70
2018-06-12T10:17:16.951Z,24.30
2018-06-12T10:19:45.209Z,24.10
2018-06-12T10:22:13.446Z,24.10
2018-06-12T10:24:41.678Z,24.30
2018-06-12T10:27:09.947Z,24.40
2018-06-12T10:29:38.166Z,24.50
2018-06-12T10:32:06.465Z,24.40
2018-06-12T10:34:34.753Z,24.50
2018-06-12T10:39:30.942Z,24.70
2018-06-12T10:41:59.182Z,24.60
2018-06-12T10:44:27.439Z,24.70
2018-06-12T10:46:55.660Z,24.80
2018-06-12T10:49:23.922Z,24.90
2018-06-12T10:51:52.166Z,24.90
2018-06-12T10:54:20.423Z,25.10
2018-06-12T10:56:48.677Z,24.90
2018-06-12T10:59:16.954Z,25.10
2018-06-12T11:01:45.197Z,25.10
2018-06-12T11:04:13.421Z,25.10
2018-06-12T11:06:41.733Z,25.10
2018-06-12T11:09:09.973Z,24.90
2018-06-12T11:11:38.336Z,24.90
2018-06-12T11:14:06.599Z,24.80
2018-06-12T11:16:34.842Z,24.80
2018-06-12T11:19:03.108Z,24.70
2018-06-12T11:21:31.365Z,24.80
2018-06-12T11:23:59.619Z,24.80
2018-06-12T11:26:27.846Z,24.80
2018-06-12T11:28:56.206Z,24.90
2018-06-12T11:31:24.461Z,25.10
2018-06-12T11:33:52.673Z,25.50
2018-06-12T11:36:21.053Z,25.60
2018-06-12T11:38:49.402Z,25.70
2018-06-12T11:41:17.651Z,25.70
2018-06-12T11:43:45.968Z,25.50
2018-06-12T11:46:14.275Z,25.60
2018-06-12T11:48:42.512Z,25.90
2018-06-12T11:51:10.774Z,25.90
2018-06-12T11:53:39.094Z,26.00
2018-06-12T11:56:09.129Z,26.00
2018-06-12T11:58:37.394Z,26.10
2018-06-12T12:01:05.673Z,26.10
2018-06-12T12:03:33.923Z,26.20
2018-06-12T12:06:02.170Z,26.20
2018-06-12T12:08:30.367Z,25.90
2018-06-12T12:10:58.617Z,26.10
2018-06-12T12:13:26.835Z,26.20
2018-06-12T12:15:55.098Z,26.30
2018-06-12T12:18:23.318Z,26.50
2018-06-12T12:20:51.551Z,26.70
2018-06-12T12:23:19.835Z,26.80
2018-06-12T12:25:48.042Z,26.40
2018-06-12T12:28:16.356Z,26.50
2018-06-12T12:30:44.590Z,26.30
2018-06-12T12:33:12.874Z,25.80
2018-06-12T12:35:41.095Z,25.40
2018-06-12T12:43:05.463Z,24.90
2018-06-12T12:45:33.686Z,24.90
2018-06-12T12:48:01.939Z,24.80
2018-06-12T12:50:30.180Z,24.60
2018-06-12T12:52:58.437Z,24.70
2018-06-12T12:55:26.776Z,24.80
2018-06-12T12:57:55.030Z,24.80
2018-06-12T13:00:23.298Z,24.90
2018-06-12T13:02:51.657Z,24.90
2018-06-12T13:05:19.926Z,24.90
2018-06-12T13:07:48.188Z,24.60
2018-06-12T13:10:16.450Z,24.80
2018-06-12T13:12:44.660Z,24.70
2018-06-12T13:15:12.927Z,24.60
2018-06-12T13:17:41.149Z,24.20
2018-06-12T13:20:09.393Z,24.10
2018-06-12T13:25:05.632Z,23.70
2018-06-12T13:27:33.867Z,23.60
2018-06-12T13:30:02.137Z,23.30
2018-06-12T13:32:30.394Z,23.30
2018-06-12T13:34:58.641Z,23.40
2018-06-12T13:37:26.895Z,23.20
2018-06-12T13:39:55.139Z,23.20
2018-06-12T13:42:23.361Z,23.20
2018-06-12T13:44:51.596Z,23.20
2018-06-12T13:47:20.144Z,23.00
2018-06-12T13:52:16.543Z,22.60
2018-06-12T13:54:44.819Z,22.50
2018-06-12T13:57:13.025Z,22.50
2018-06-12T13:59:41.309Z,22.40
2018-06-12T14:02:09.562Z,22.40
2018-06-12T14:04:37.796Z,22.30
2018-06-12T14:07:06.067Z,22.20
2018-06-12T14:09:34.317Z,22.20
2018-06-12T14:12:02.542Z,22.40
2018-06-12T14:14:30.770Z,22.40
2018-06-12T14:16:58.995Z,22.60
2018-06-12T14:19:27.228Z,22.80
2018-06-12T14:21:55.501Z,23.00
2018-06-12T14:24:23.732Z,23.10
2018-06-12T14:26:51.977Z,23.20
2018-06-12T14:29:20.230Z,23.30
2018-06-12T14:31:48.452Z,23.20
2018-06-12T14:34:16.713Z,23.50
2018-06-12T14:36:44.991Z,23.80
2018-06-12T14:44:10.020Z,24.90
2018-06-12T14:46:38.511Z,25.40
2018-06-12T14:49:06.875Z,25.90
2018-06-12T14:51:35.123Z,26.50
2018-06-12T14:54:03.350Z,26.80
2018-06-12T14:56:31.587Z,26.40
2018-06-12T14:58:59.845Z,26.10
2018-06-12T15:01:28.064Z,25.80
2018-06-12T15:03:56.311Z,25.40
2018-06-12T15:06:24.559Z,25.00
2018-06-12T15:08:52.814Z,24.80
2018-06-12T15:11:21.055Z,24.60
2018-06-12T15:13:49.295Z,24.30
2018-06-12T15:16:17.552Z,24.20
2018-06-12T15:18:45.765Z,24.00
2018-06-12T15:21:14.042Z,23.80
2018-06-12T15:23:42.311Z,23.70
2018-06-12T15:26:10.543Z,23.70
2018-06-12T15:28:38.817Z,23.70
2018-06-12T15:31:07.181Z,23.70
2018-06-12T15:33:35.499Z,23.70
2018-06-12T15:36:03.745Z,23.70
2018-06-12T15:43:27.998Z,23.70
2018-06-12T15:45:56.224Z,23.90
2018-06-12T15:48:24.478Z,24.20
2018-06-12T15:50:52.737Z,24.40
2018-06-12T15:53:20.973Z,24.70
2018-06-12T15:55:49.471Z,25.10
2018-06-12T15:58:17.691Z,25.30
2018-06-12T16:00:45.948Z,25.60
2018-06-12T16:03:14.238Z,25.50
2018-06-12T16:05:42.491Z,25.60
2018-06-12T16:08:10.904Z,25.50
2018-06-12T16:10:39.170Z,25.30
2018-06-12T16:15:35.414Z,24.80
2018-06-12T16:18:03.638Z,24.60
2018-06-12T16:20:31.890Z,24.20
2018-06-12T16:23:00.148Z,24.00
2018-06-12T16:25:28.387Z,23.80
2018-06-12T16:30:24.600Z,23.80
2018-06-12T16:32:53.010Z,24.20
2018-06-12T16:35:21.282Z,24.80
2018-06-12T16:37:49.523Z,25.20
2018-06-12T16:40:18.826Z,25.30
2018-06-12T16:42:47.052Z,25.10
2018-06-12T16:45:15.315Z,24.70
2018-06-12T16:47:43.624Z,24.50
2018-06-12T16:50:11.859Z,24.50
2018-06-12T16:52:40.115Z,24.70
2018-06-12T16:55:08.361Z,24.50
2018-06-12T16:57:36.628Z,24.20
2018-06-12T17:00:05.039Z,23.70
2018-06-12T17:05:01.339Z,23.40
2018-06-12T17:07:29.650Z,23.50
2018-06-12T17:09:57.964Z,23.50
2018-06-12T17:12:26.202Z,23.20
2018-06-12T17:14:54.450Z,23.20
2018-06-12T17:17:22.700Z,23.20
2018-06-12T17:19:50.937Z,23.10
2018-06-12T17:24:47.127Z,23.00
2018-06-12T17:27:15.377Z,22.80
2018-06-12T17:29:43.619Z,22.40
2018-06-12T17:32:11.896Z,22.10
2018-06-12T17:34:40.326Z,22.00
2018-06-12T17:37:08.583Z,21.70
2018-06-12T17:39:36.898Z,21.60
2018-06-12T17:42:05.132Z,21.60
2018-06-12T17:44:33.374Z,21.60
2018-06-12T17:47:01.638Z,21.50
2018-06-12T17:49:29.844Z,21.40
2018-06-12T17:51:58.084Z,21.40
2018-06-12T17:54:26.319Z,21.10
2018-06-12T17:56:54.569Z,21.00
2018-06-12T17:59:22.822Z,20.90
2018-06-12T18:01:51.089Z,20.90
2018-06-12T18:04:19.343Z,20.70
2018-06-12T18:06:47.582Z,20.60
2018-06-12T18:09:15.798Z,20.60
2018-06-12T18:14:12.098Z,20.30
2018-06-12T18:16:40.349Z,20.30
2018-06-12T18:19:08.601Z,20.20
2018-06-12T18:21:36.858Z,20.10
2018-06-12T18:24:05.127Z,20.20
2018-06-12T18:26:33.354Z,20.20
2018-06-12T18:29:01.583Z,20.30
2018-06-12T18:31:29.810Z,20.20
2018-06-12T18:33:58.044Z,20.30
2018-06-12T18:36:26.280Z,20.20
2018-06-12T18:38:54.489Z,20.20
2018-06-12T18:41:22.736Z,20.30
2018-06-12T18:43:50.971Z,20.10
2018-06-12T18:46:19.199Z,20.10
2018-06-12T18:48:47.458Z,20.00
2018-06-12T18:51:15.721Z,19.80
2018-06-12T18:53:43.942Z,19.60
2018-06-12T18:56:12.314Z,19.50
2018-06-12T18:58:40.660Z,19.40
2018-06-12T19:01:08.923Z,19.40
2018-06-12T19:03:37.175Z,19.40
2018-06-12T19:06:05.469Z,19.50
2018-06-12T19:08:33.724Z,19.50
2018-06-12T19:11:02.003Z,19.30
2018-06-12T19:15:58.238Z,19.30
2018-06-12T19:18:26.470Z,19.30
2018-06-12T19:20:54.721Z,19.30
2018-06-12T19:23:22.954Z,19.40
2018-06-12T19:25:51.190Z,19.40
2018-06-12T19:28:19.520Z,19.50
2018-06-12T19:30:47.782Z,19.30
2018-06-12T19:33:16.030Z,19.20
2018-06-12T19:35:44.326Z,19.10
2018-06-12T19:38:12.575Z,19.10
2018-06-12T19:40:40.886Z,18.90
2018-06-12T19:43:09.146Z,18.70
2018-06-12T19:45:37.419Z,18.70
2018-06-12T19:48:05.646Z,18.60
2018-06-12T19:50:33.861Z,18.60
2018-06-12T19:53:02.119Z,18.60
2018-06-12T19:55:30.449Z,18.60
2018-06-12T19:57:58.688Z,18.50
2018-06-12T20:00:26.972Z,18.40
2018-06-12T20:02:55.134Z,18.40
2018-06-12T20:07:51.358Z,18.40
2018-06-12T20:10:19.605Z,18.30
2018-06-12T20:12:47.823Z,18.30
2018-06-12T20:15:16.068Z,18.30
2018-06-12T20:17:44.287Z,18.40
2018-06-12T20:20:12.530Z,18.50
2018-06-12T20:22:40.773Z,18.60
2018-06-12T20:25:09.057Z,18.70
2018-06-12T20:27:37.309Z,18.70
2018-06-12T20:30:06.079Z,18.80
2018-06-12T20:32:34.311Z,18.80
2018-06-12T20:35:02.587Z,18.70
2018-06-12T20:39:58.887Z,18.70
2018-06-12T20:42:27.126Z,18.70
2018-06-12T20:44:55.377Z,18.70
2018-06-12T20:47:24.495Z,18.70
2018-06-12T20:49:52.765Z,18.70
2018-06-12T20:52:21.006Z,18.60
2018-06-12T20:54:49.222Z,18.60
2018-06-12T20:57:17.451Z,18.50
2018-06-12T20:59:45.675Z,18.50
2018-06-12T21:04:47.494Z,18.40
2018-06-12T21:07:15.847Z,18.40
2018-06-12T21:09:44.018Z,18.30
2018-06-12T21:12:12.266Z,18.20
2018-06-12T21:14:40.508Z,18.00
2018-06-12T21:17:08.817Z,18.10
2018-06-12T21:19:37.060Z,18.10
2018-06-12T21:22:05.321Z,18.00
2018-06-12T21:24:33.577Z,18.00
2018-06-12T21:27:01.795Z,18.00
2018-06-12T21:29:30.063Z,18.00
2018-06-12T21:31:58.314Z,18.10
2018-06-12T21:34:26.576Z,18.00
2018-06-12T21:36:54.856Z,18.10
2018-06-12T21:39:23.102Z,18.00
2018-06-12T21:41:51.363Z,17.90
2018-06-12T21:44:19.598Z,17.80
2018-06-12T21:46:47.846Z,17.80
2018-06-12T21:49:16.086Z,17.70
2018-06-12T21:51:44.326Z,17.70
2018-06-12T21:54:12.594Z,17.60
2018-06-12T21:56:40.895Z,17.60
2018-06-12T21:59:09.094Z,17.50
2018-06-12T22:01:37.379Z,17.50
2018-06-12T22:04:05.631Z,17.50
2018-06-12T22:06:33.895Z,17.40
2018-06-12T22:09:02.132Z,17.40
2018-06-12T22:11:30.386Z,17.30
2018-06-12T22:13:58.642Z,17.30
2018-06-12T22:18:54.868Z,17.20
2018-06-12T22:21:23.103Z,17.10
2018-06-12T22:23:51.365Z,17.20
2018-06-12T22:26:19.637Z,17.10
2018-06-12T22:28:47.984Z,17.10
2018-06-12T22:33:44.199Z,17.20
2018-06-12T22:36:12.446Z,17.20
2018-06-12T22:38:40.686Z,17.20
2018-06-12T22:41:08.969Z,17.20
2018-06-12T22:43:37.175Z,17.20
2018-06-12T22:46:05.540Z,17.20
2018-06-12T22:48:33.759Z,17.30
2018-06-12T22:53:29.901Z,17.40
2018-06-12T22:55:58.151Z,17.50
2018-06-12T22:58:26.370Z,17.40
2018-06-12T23:00:54.618Z,17.40
2018-06-12T23:03:22.870Z,17.40
2018-06-12T23:05:51.120Z,17.40
2018-06-12T23:08:19.367Z,17.30
2018-06-12T23:10:47.621Z,17.30
2018-06-12T23:13:15.890Z,17.20
2018-06-12T23:15:44.123Z,17.20
2018-06-12T23:18:12.381Z,17.10
2018-06-12T23:20:52.089Z,17.00
2018-06-12T23:23:20.315Z,17.00
2018-06-12T23:25:48.555Z,16.90
2018-06-12T23:30:44.771Z,16.80
2018-06-12T23:33:12.995Z,16.80
2018-06-12T23:35:41.239Z,16.80
2018-06-12T23:38:09.528Z,16.80
2018-06-12T23:40:37.773Z,16.80
2018-06-12T23:43:06.111Z,16.80
2018-06-12T23:45:34.344Z,16.80
2018-06-12T23:48:02.567Z,16.80
2018-06-12T23:50:30.795Z,16.90
2018-06-12T23:52:59.049Z,16.80
2018-06-12T23:55:27.290Z,16.70
